Time;durP1;ratioP1;P1;durP2;ratioP2;P2;SDS_P1;SDS_P2;PMS_P1;PMS_P2;Temp;Humidity;BMP_temperature;BMP_pressure;BME280_temperature;BME280_humidity;BME280_pressure;Samples;Min_cycle;Max_cycle;Signal;HPM_P1;HPM_P2
2022/03/03 00:02:03;;;;;;;9.43;6.50;;;;;;;-2.89;99.29;101552.91;5009286;28;20037;-80
2022/03/03 00:04:30;;;;;;;11.03;6.67;;;;;;;-2.80;98.31;101549.88;5000908;28;20041;-80
2022/03/03 00:06:57;;;;;;;13.80;7.67;;;;;;;-2.74;97.70;101552.75;5026383;28;20041;-79
2022/03/03 00:09:24;;;;;;;10.63;7.07;;;;;;;-2.84;97.23;101560.09;5005070;28;20516;-79
2022/03/03 00:11:51;;;;;;;10.77;7.57;;;;;;;-3.03;98.04;101559.09;5015402;28;20392;-79
2022/03/03 00:14:18;;;;;;;11.50;7.60;;;;;;;-3.09;99.21;101562.31;5021907;28;20124;-80
2022/03/03 00:16:47;;;;;;;11.57;7.80;;;;;;;-3.04;99.68;101568.56;5015495;28;20045;-79
2022/03/03 00:19:14;;;;;;;12.33;7.60;;;;;;;-2.95;98.89;101571.59;5015822;28;20037;-79
2022/03/03 00:21:41;;;;;;;12.13;6.90;;;;;;;-3.02;98.55;101564.38;4992574;28;20049;-79
2022/03/03 00:24:08;;;;;;;14.37;7.17;;;;;;;-3.10;100.00;101568.28;4982799;28;20050;-80
2022/03/03 00:26:37;;;;;;;10.93;7.27;;;;;;;-3.05;100.00;101563.31;5016620;28;20095;-80
2022/03/03 00:29:06;;;;;;;10.97;7.07;;;;;;;-3.08;100.00;101556.31;5033701;28;20052;-79
2022/03/03 00:31:35;;;;;;;9.67;6.73;;;;;;;-3.11;99.84;101563.94;5009154;28;20474;-79
2022/03/03 00:34:04;;;;;;;12.03;7.73;;;;;;;-3.15;100.00;101562.00;4996721;28;20038;-79
2022/03/03 00:36:34;;;;;;;12.80;8.23;;;;;;;-3.14;100.00;101554.31;5009109;28;20056;-79
2022/03/03 00:39:01;;;;;;;14.07;7.03;;;;;;;-3.04;99.59;101555.63;5033216;28;20041;-79
2022/03/03 00:41:28;;;;;;;12.27;7.13;;;;;;;-3.09;99.83;101562.31;5028739;28;20503;-79
2022/03/03 00:43:55;;;;;;;14.80;9.33;;;;;;;-3.08;99.49;101558.91;5018516;28;20037;-80
2022/03/03 00:46:25;;;;;;;12.27;7.73;;;;;;;-3.20;99.13;101558.28;5042481;28;20048;-79
2022/03/03 00:48:54;;;;;;;13.60;8.50;;;;;;;-3.19;99.87;101558.38;5001347;28;20041;-79
2022/03/03 00:51:22;;;;;;;14.60;7.93;;;;;;;-3.29;99.48;101547.50;5001066;28;20052;-80
2022/03/03 00:53:51;;;;;;;12.40;7.90;;;;;;;-3.40;100.00;101544.38;4998687;28;20050;-79
2022/03/03 00:56:21;;;;;;;13.30;7.50;;;;;;;-3.31;99.53;101546.53;5001124;28;20049;-79
2022/03/03 00:58:48;;;;;;;13.60;8.07;;;;;;;-3.32;99.10;101539.59;5000487;28;20049;-79
2022/03/03 01:01:18;;;;;;;14.07;8.13;;;;;;;-3.44;99.72;101540.78;5003003;28;20046;-79
2022/03/03 01:03:45;;;;;;;13.43;7.87;;;;;;;-3.40;99.43;101527.19;5032125;28;20586;-78
2022/03/03 01:06:14;;;;;;;11.93;7.77;;;;;;;-3.53;99.53;101522.25;5022917;28;20048;-78
2022/03/03 01:08:41;;;;;;;15.00;8.70;;;;;;;-3.63;100.00;101526.84;5006619;28;20045;-78
2022/03/03 01:11:09;;;;;;;14.07;8.37;;;;;;;-3.58;100.00;101523.69;5025060;28;20140;-78
2022/03/03 01:13:36;;;;;;;15.03;8.60;;;;;;;-3.53;99.81;101536.81;5022153;28;20057;-78
2022/03/03 01:16:05;;;;;;;14.83;8.40;;;;;;;-3.43;100.00;101532.22;4994361;28;20072;-78
2022/03/03 01:18:32;;;;;;;15.07;8.97;;;;;;;-3.45;99.51;101541.59;5008019;28;20109;-78
2022/03/03 01:20:59;;;;;;;13.00;8.17;;;;;;;-3.61;99.87;101541.63;5043596;28;20045;-79
2022/03/03 01:23:26;;;;;;;15.67;9.17;;;;;;;-3.69;100.00;101537.78;5093551;23;20052;-83
2022/03/03 01:25:53;;;;;;;17.87;9.97;;;;;;;-3.74;100.00;101531.47;5027738;28;21444;-84
2022/03/03 01:28:20;;;;;;;13.47;8.73;;;;;;;-3.92;100.00;101534.00;4998474;28;20045;-82
2022/03/03 01:30:46;;;;;;;16.20;9.40;;;;;;;-3.80;100.00;101546.66;5004344;28;20526;-80
2022/03/03 01:33:13;;;;;;;15.27;9.20;;;;;;;-3.67;100.00;101548.19;5000376;28;20041;-82
2022/03/03 01:35:40;;;;;;;16.63;9.37;;;;;;;-3.70;100.00;101543.72;5016191;28;20074;-80
2022/03/03 01:38:08;;;;;;;16.67;8.90;;;;;;;-3.70;100.00;101554.03;5032943;28;20541;-83
2022/03/03 01:40:35;;;;;;;15.77;8.93;;;;;;;-3.57;100.00;101550.41;5018455;28;20045;-79
2022/03/03 01:43:03;;;;;;;15.80;8.90;;;;;;;-3.53;100.00;101553.25;4991292;28;20052;-81
2022/03/03 01:45:29;;;;;;;13.17;8.03;;;;;;;-3.55;100.00;101549.66;4981714;28;20056;-80
2022/03/03 01:47:56;;;;;;;13.50;7.70;;;;;;;-3.57;100.00;101550.41;5046805;28;20044;-80
2022/03/03 01:50:23;;;;;;;14.13;8.03;;;;;;;-3.59;100.00;101537.41;5020061;28;20049;-86
2022/03/03 01:52:49;;;;;;;13.13;8.60;;;;;;;-3.55;100.00;101541.91;5019143;28;20064;-79
2022/03/03 01:55:16;;;;;;;14.53;8.63;;;;;;;-3.55;100.00;101547.09;5036604;28;20045;-81
2022/03/03 01:57:43;;;;;;;13.27;7.63;;;;;;;-3.62;100.00;101528.63;5025581;28;20074;-81
2022/03/03 02:00:10;;;;;;;14.77;8.40;;;;;;;-3.67;100.00;101530.97;5003940;28;20507;-84
2022/03/03 02:02:38;;;;;;;15.23;8.30;;;;;;;-3.74;100.00;101522.03;5028549;28;20045;-81
2022/03/03 02:05:06;;;;;;;13.23;8.13;;;;;;;-3.74;100.00;101522.03;5016493;28;20052;-80
2022/03/03 02:07:32;;;;;;;13.50;7.90;;;;;;;-3.81;100.00;101509.63;5028902;28;20548;-81
2022/03/03 02:10:01;;;;;;;15.07;8.83;;;;;;;-3.82;100.00;101506.97;5003685;28;20059;-81
2022/03/03 02:12:28;;;;;;;10.83;7.60;;;;;;;-3.86;100.00;101499.88;5019799;28;20053;-79
2022/03/03 02:14:55;;;;;;;13.87;8.77;;;;;;;-3.85;100.00;101499.97;5004082;28;20041;-80
2022/03/03 02:17:22;;;;;;;16.67;8.90;;;;;;;-3.85;100.00;101496.50;5019751;28;20037;-80
2022/03/03 02:19:49;;;;;;;15.23;8.60;;;;;;;-3.93;100.00;101477.16;5019820;28;20037;-81
2022/03/03 02:22:15;;;;;;;14.43;8.63;;;;;;;-3.94;100.00;101478.84;5018801;28;20041;-80
2022/03/03 02:24:43;;;;;;;13.67;8.20;;;;;;;-3.98;100.00;101464.88;5005404;28;20507;-81
2022/03/03 02:27:10;;;;;;;12.37;8.07;;;;;;;-4.00;100.00;101458.75;5022441;28;20048;-81
2022/03/03 02:29:37;;;;;;;15.80;8.80;;;;;;;-3.74;100.00;101456.59;5022268;28;20060;-81
2022/03/03 02:32:05;;;;;;;18.93;9.83;;;;;;;-3.94;100.00;101455.63;5005890;28;20045;-81
2022/03/03 02:34:32;;;;;;;16.60;10.27;;;;;;;-4.00;100.00;101445.84;5001328;28;20050;-81
2022/03/03 02:36:59;;;;;;;17.53;10.23;;;;;;;-3.97;100.00;101446.00;5022241;28;20045;-81
2022/03/03 02:39:26;;;;;;;16.20;9.50;;;;;;;-4.05;100.00;101439.56;5027880;28;20033;-82
2022/03/03 02:41:52;;;;;;;20.00;9.93;;;;;;;-4.03;100.00;101437.97;5044316;28;20095;-82
2022/03/03 02:44:19;;;;;;;17.83;10.13;;;;;;;-4.11;100.00;101444.44;5026043;28;20045;-82
2022/03/03 02:46:46;;;;;;;15.23;10.47;;;;;;;-4.17;100.00;101430.31;5022988;28;20048;-81
2022/03/03 02:49:13;;;;;;;18.83;10.23;;;;;;;-4.04;100.00;101443.03;5044003;28;20052;-82
2022/03/03 02:51:39;;;;;;;15.97;9.07;;;;;;;-4.02;100.00;101451.75;5024812;28;20051;-81
2022/03/03 02:54:06;;;;;;;19.97;10.07;;;;;;;-4.12;100.00;101440.09;5029056;28;20090;-82
2022/03/03 02:57:53;;;;;;;19.07;10.77;;;;;;;-4.21;100.00;101428.38;5038013;28;20075;-81
2022/03/03 02:59:20;;;;;;;20.20;10.77;;;;;;;-4.05;100.00;101447.31;5026414;28;20143;-81
2022/03/03 03:01:46;;;;;;;18.80;10.77;;;;;;;-4.02;100.00;101454.34;5022341;28;20107;-81
2022/03/03 03:04:13;;;;;;;21.30;12.00;;;;;;;-4.08;100.00;101464.34;5039427;28;20037;-81
2022/03/03 03:06:40;;;;;;;20.80;11.67;;;;;;;-4.19;100.00;101466.38;5011891;28;20511;-81
2022/03/03 03:09:07;;;;;;;17.43;10.57;;;;;;;-4.34;100.00;101461.31;5021813;28;20041;-81
2022/03/03 03:11:33;;;;;;;19.07;11.47;;;;;;;-4.30;100.00;101475.22;5015906;28;20053;-81
2022/03/03 03:14:00;;;;;;;20.53;11.90;;;;;;;-4.27;100.00;101476.28;5022067;28;20462;-81
2022/03/03 03:16:27;;;;;;;23.67;11.97;;;;;;;-4.32;100.00;101470.00;5016168;28;20049;-81
2022/03/03 03:18:53;;;;;;;20.43;11.77;;;;;;;-4.40;100.00;101465.25;5016729;28;20048;-81
2022/03/03 03:21:20;;;;;;;20.23;11.47;;;;;;;-4.42;100.00;101464.28;5036863;28;20402;-82
2022/03/03 03:23:47;;;;;;;27.10;13.50;;;;;;;-4.33;100.00;101468.22;5020878;28;20041;-82
2022/03/03 03:26:13;;;;;;;20.00;11.73;;;;;;;-4.40;100.00;101457.50;5017841;28;20053;-81
2022/03/03 03:28:40;;;;;;;17.03;10.90;;;;;;;-4.46;100.00;101449.44;5001503;28;20663;-82
2022/03/03 03:31:07;;;;;;;20.77;11.53;;;;;;;-4.48;100.00;101456.22;4994518;28;20032;-80
2022/03/03 03:33:33;;;;;;;20.47;11.80;;;;;;;-4.39;100.00;101456.69;5021150;28;20045;-81
2022/03/03 03:36:00;;;;;;;21.77;11.83;;;;;;;-4.30;100.00;101455.47;5018985;28;20048;-81
2022/03/03 03:38:27;;;;;;;20.20;11.80;;;;;;;-4.28;100.00;101460.75;5035905;28;20041;-81
2022/03/03 03:40:53;;;;;;;22.53;13.33;;;;;;;-4.13;100.00;101474.41;5014862;28;20041;-81
2022/03/03 03:43:20;;;;;;;18.77;12.13;;;;;;;-4.14;100.00;101466.59;5019808;28;20094;-80
2022/03/03 03:45:46;;;;;;;22.93;12.57;;;;;;;-4.04;100.00;101469.72;5017834;28;20079;-82
2022/03/03 03:48:13;;;;;;;22.00;12.37;;;;;;;-3.89;100.00;101479.06;5019709;28;20127;-81
2022/03/03 03:50:40;;;;;;;19.60;13.37;;;;;;;-3.83;100.00;101475.09;5020935;28;20041;-82
2022/03/03 03:53:06;;;;;;;21.73;12.47;;;;;;;-3.75;100.00;101478.94;5022846;28;20079;-80
2022/03/03 03:55:33;;;;;;;21.57;12.20;;;;;;;-3.73;100.00;101476.44;5019135;28;20492;-81
2022/03/03 03:58:00;;;;;;;27.13;14.67;;;;;;;-3.65;100.00;101480.28;5004673;28;20103;-82
2022/03/03 04:00:26;;;;;;;48.93;23.27;;;;;;;-3.50;100.00;101478.47;5021348;28;20047;-81
2022/03/03 04:02:53;;;;;;;47.73;23.30;;;;;;;-3.29;100.00;101459.66;5017889;28;20067;-82
2022/03/03 04:05:20;;;;;;;44.73;21.33;;;;;;;-3.31;100.00;101461.28;5032441;28;20419;-81
2022/03/03 04:07:47;;;;;;;67.33;31.37;;;;;;;-3.31;100.00;101464.75;5020574;28;20041;-82
2022/03/03 04:10:13;;;;;;;53.23;27.63;;;;;;;-3.25;100.00;101451.25;5023231;28;20041;-82
2022/03/03 04:12:41;;;;;;;66.13;30.67;;;;;;;-2.92;100.00;101450.25;5001624;28;20068;-81
2022/03/03 04:15:09;;;;;;;62.43;28.37;;;;;;;-2.89;100.00;101459.84;5014385;28;20056;-82
2022/03/03 04:17:36;;;;;;;56.33;26.77;;;;;;;-2.78;100.00;101455.16;5022210;28;20041;-82
2022/03/03 04:20:05;;;;;;;61.97;28.17;;;;;;;-2.71;100.00;101455.50;4996926;28;20053;-81
2022/03/03 04:22:34;;;;;;;65.17;30.03;;;;;;;-2.68;100.00;101455.66;4998110;28;20037;-82
2022/03/03 04:25:01;;;;;;;58.40;27.43;;;;;;;-2.71;100.00;101455.50;5030587;28;20049;-81
2022/03/03 04:27:28;;;;;;;57.30;27.37;;;;;;;-2.57;100.00;101461.31;5006077;28;20053;-82
2022/03/03 04:29:54;;;;;;;61.90;27.83;;;;;;;-2.56;100.00;101447.56;5024782;28;20037;-83
2022/03/03 04:32:21;;;;;;;62.63;25.03;;;;;;;-2.54;100.00;101445.91;5026082;28;20106;-83
2022/03/03 04:34:48;;;;;;;54.53;24.57;;;;;;;-2.48;100.00;101433.25;5025594;28;20067;-83
2022/03/03 04:37:14;;;;;;;52.93;26.47;;;;;;;-2.47;100.00;101419.50;5025191;28;20053;-82
2022/03/03 04:39:41;;;;;;;45.70;24.03;;;;;;;-2.49;100.00;101428.91;5008326;28;20071;-83
2022/03/03 04:42:08;;;;;;;50.00;22.77;;;;;;;-2.37;100.00;101421.69;5023767;28;20557;-82
2022/03/03 04:44:34;;;;;;;49.53;22.60;;;;;;;-2.39;100.00;101425.91;5023809;28;20053;-82
2022/03/03 04:47:01;;;;;;;48.57;22.20;;;;;;;-2.44;100.00;101417.03;5023413;28;20099;-82
2022/03/03 04:49:28;;;;;;;46.53;21.77;;;;;;;-2.37;100.00;101416.50;5022951;28;20041;-82
2022/03/03 04:51:55;;;;;;;48.43;23.30;;;;;;;-2.48;100.00;101415.16;5018413;28;20527;-82
2022/03/03 04:54:21;;;;;;;49.67;23.53;;;;;;;-2.43;100.00;101402.44;5021610;28;20051;-82
2022/03/03 04:56:48;;;;;;;59.00;22.77;;;;;;;-2.36;100.00;101415.69;5022423;28;20049;-82
2022/03/03 04:59:15;;;;;;;43.83;21.23;;;;;;;-2.21;100.00;101419.75;5022267;28;20462;-83
2022/03/03 05:01:41;;;;;;;48.37;21.60;;;;;;;-2.33;100.00;101408.06;5015705;28;20411;-83
2022/03/03 05:04:08;;;;;;;45.40;20.43;;;;;;;-2.23;100.00;101406.75;5016500;28;20056;-81
2022/03/03 05:06:35;;;;;;;50.17;20.93;;;;;;;-2.27;100.00;101403.16;5003542;28;20053;-84
2022/03/03 05:09:02;;;;;;;42.77;20.13;;;;;;;-2.29;100.00;101394.44;5016869;28;20064;-81
2022/03/03 05:11:29;;;;;;;44.83;20.57;;;;;;;-2.43;100.00;101403.31;5001757;28;20678;-82
2022/03/03 05:13:55;;;;;;;45.00;21.67;;;;;;;-2.27;100.00;101397.06;5005786;28;20041;-83
2022/03/03 05:16:22;;;;;;;42.53;21.37;;;;;;;-2.29;100.00;101404.78;5035885;28;20100;-81
2022/03/03 05:18:49;;;;;;;46.83;21.83;;;;;;;-2.26;100.00;101411.81;5017412;28;20077;-83
2022/03/03 05:21:16;;;;;;;44.70;20.37;;;;;;;-2.13;100.00;101410.63;4999516;28;20041;-81
2022/03/03 05:23:42;;;;;;;41.50;20.63;;;;;;;-2.19;100.00;101415.53;5033480;28;20041;-81
2022/03/03 05:26:09;;;;;;;45.17;21.10;;;;;;;-2.24;100.00;101404.09;5030231;28;20045;-81
2022/03/03 05:28:36;;;;;;;36.70;19.07;;;;;;;-2.07;100.00;101405.72;5002132;28;20037;-82
2022/03/03 05:31:02;;;;;;;41.10;18.50;;;;;;;-2.02;100.00;101404.19;5035381;28;20107;-82
2022/03/03 05:33:31;;;;;;;39.67;18.20;;;;;;;-2.06;100.00;101415.25;4995041;28;20037;-82
2022/03/03 05:36:00;;;;;;;37.17;17.47;;;;;;;-2.08;100.00;101409.13;5019259;28;20045;-80
2022/03/03 05:38:29;;;;;;;32.40;16.03;;;;;;;-2.02;100.00;101406.78;5018070;28;20106;-82
2022/03/03 05:40:57;;;;;;;44.07;18.23;;;;;;;-2.16;100.00;101405.31;5005060;28;20112;-82
2022/03/03 05:43:24;;;;;;;35.27;17.20;;;;;;;-2.25;100.00;101403.22;5020886;28;20045;-81
2022/03/03 05:45:52;;;;;;;37.70;18.13;;;;;;;-2.06;100.00;101408.34;5004825;28;20049;-81
2022/03/03 05:48:20;;;;;;;35.33;16.23;;;;;;;-2.03;100.00;101411.06;5020304;28;20091;-82
2022/03/03 05:50:47;;;;;;;37.00;16.27;;;;;;;-2.11;100.00;101406.38;5038611;28;20550;-82
2022/03/03 05:53:14;;;;;;;31.47;15.30;;;;;;;-2.09;100.00;101413.41;5007753;28;20492;-82
2022/03/03 05:55:58;;;;;;;31.10;14.67;;;;;;;-2.22;100.00;101418.00;5038696;28;20045;-82
2022/03/03 05:58:34;;;;;;;30.70;15.07;;;;;;;-2.11;100.00;101412.44;5003033;28;20072;-81
2022/03/03 06:01:01;;;;;;;30.23;14.57;;;;;;;-1.98;100.00;101422.50;5002618;28;20041;-82
2022/03/03 06:03:30;;;;;;;36.43;15.57;;;;;;;-2.13;100.00;101428.75;5015053;28;20080;-82
2022/03/03 06:06:28;;;;;;;27.57;12.97;;;;;;;-2.18;100.00;101428.56;5021024;28;20075;-82
2022/03/03 06:09:14;;;;;;;25.93;13.90;;;;;;;-2.00;100.00;101433.63;5011180;28;20049;-83
2022/03/03 06:12:10;;;;;;;26.63;13.13;;;;;;;-2.08;100.00;101440.19;5005725;28;20487;-82
2022/03/03 06:14:45;;;;;;;27.50;14.07;;;;;;;-1.95;100.00;101445.06;4998550;28;20103;-81
2022/03/03 06:17:12;;;;;;;24.97;13.13;;;;;;;-1.99;100.00;101438.00;5006100;28;20037;-81
2022/03/03 06:19:42;;;;;;;30.63;14.33;;;;;;;-2.12;100.00;101451.22;5027462;28;20045;-83
2022/03/03 06:22:10;;;;;;;28.03;13.33;;;;;;;-2.07;100.00;101452.31;5015195;28;20068;-82
2022/03/03 06:24:38;;;;;;;29.77;12.33;;;;;;;-1.91;100.00;101454.75;5046457;28;20041;-84
2022/03/03 06:27:04;;;;;;;29.43;12.57;;;;;;;-2.05;100.00;101443.78;5010563;28;20523;-81
2022/03/03 06:29:34;;;;;;;27.27;12.10;;;;;;;-1.96;100.00;101442.41;5043227;28;20134;-82
2022/03/03 06:32:01;;;;;;;27.27;12.40;;;;;;;-1.95;100.00;101436.41;5008498;28;20048;-83
2022/03/03 06:34:28;;;;;;;27.87;13.70;;;;;;;-1.84;100.00;101442.94;5010776;28;20076;-83
2022/03/03 06:36:55;;;;;;;27.20;13.07;;;;;;;-1.97;100.00;101431.16;5026134;28;20418;-83
2022/03/03 06:39:22;;;;;;;23.80;12.97;;;;;;;-1.98;100.00;101435.47;5026144;28;20044;-84
2022/03/03 06:41:50;;;;;;;28.47;13.77;;;;;;;-2.02;100.00;101449.13;5008366;28;20041;-82
2022/03/03 06:44:16;;;;;;;31.60;14.43;;;;;;;-2.03;100.00;101449.03;5025017;28;20094;-84
2022/03/03 06:46:44;;;;;;;31.57;15.23;;;;;;;-1.86;100.00;101448.03;5007405;28;20057;-83
2022/03/03 06:49:12;;;;;;;33.83;14.17;;;;;;;-1.69;100.00;101448.75;5035550;28;20041;-82
2022/03/03 06:51:43;;;;;;;27.10;12.60;;;;;;;-1.68;100.00;101444.44;5020339;28;20037;-84
2022/03/03 06:54:16;;;;;;;34.97;13.77;;;;;;;-1.71;100.00;101442.63;5019889;28;20045;-83
2022/03/03 06:56:48;;;;;;;23.80;12.03;;;;;;;-1.74;100.00;101458.03;5005199;28;20053;-82
2022/03/03 06:59:16;;;;;;;28.17;12.87;;;;;;;-1.71;100.00;101453.88;4998141;28;20068;-85
2022/03/03 07:01:44;;;;;;;32.10;13.80;;;;;;;-1.54;100.00;101440.72;5001267;28;20396;-82
2022/03/03 07:04:13;;;;;;;25.73;13.03;;;;;;;-1.71;100.00;101442.63;5002546;28;20675;-83
2022/03/03 07:06:40;;;;;;;25.17;11.27;;;;;;;-1.63;100.00;101446.41;5005310;28;20041;-81
2022/03/03 07:09:08;;;;;;;23.57;12.20;;;;;;;-1.50;100.00;101448.69;5003557;28;20041;-83
2022/03/03 07:11:37;;;;;;;25.37;12.13;;;;;;;-1.49;100.00;101445.28;5018758;28;20050;-82
2022/03/03 07:14:04;;;;;;;25.43;12.63;;;;;;;-1.49;100.00;101453.06;4983792;28;20499;-81
2022/03/03 07:16:41;;;;;;;30.70;11.97;;;;;;;-1.50;100.00;101445.22;4990439;28;20047;-79
2022/03/03 07:19:35;;;;;;;22.07;11.40;;;;;;;-1.39;100.00;101448.25;5035980;28;20048;-80
2022/03/03 07:22:26;;;;;;;20.00;10.17;;;;;;;-1.26;100.00;101447.88;5035613;28;20095;-81
2022/03/03 07:25:08;;;;;;;26.00;11.27;;;;;;;-1.26;100.00;101448.81;5020015;28;20048;-80
2022/03/03 07:27:35;;;;;;;24.47;12.17;;;;;;;-1.28;100.00;101449.53;5019845;28;20071;-80
2022/03/03 07:30:06;;;;;;;27.70;11.57;;;;;;;-1.37;100.00;101451.78;5003740;28;20041;-81
2022/03/03 07:32:38;;;;;;;26.10;11.73;;;;;;;-1.32;100.00;101445.06;5003404;28;20041;-80
2022/03/03 07:35:07;;;;;;;24.93;11.63;;;;;;;-1.28;100.00;101446.94;5036304;28;20049;-80
2022/03/03 07:37:36;;;;;;;27.60;11.60;;;;;;;-1.26;100.00;101456.59;5019767;28;20496;-80
2022/03/03 07:40:06;;;;;;;27.97;11.60;;;;;;;-1.29;100.00;101458.16;5019786;28;20041;-80
2022/03/03 07:42:34;;;;;;;26.20;11.27;;;;;;;-1.23;100.00;101466.19;5017095;28;20046;-82
2022/03/03 07:45:05;;;;;;;29.67;13.20;;;;;;;-1.28;100.00;101476.34;5003130;28;20053;-83
2022/03/03 07:47:32;;;;;;;24.67;12.23;;;;;;;-1.09;100.00;101480.59;5015070;28;20064;-82
2022/03/03 07:49:59;;;;;;;27.03;11.27;;;;;;;-1.05;100.00;101477.28;5022584;28;20041;-81
2022/03/03 07:52:28;;;;;;;30.20;13.20;;;;;;;-1.29;100.00;101481.47;5002368;28;20048;-83
2022/03/03 07:54:55;;;;;;;26.67;12.63;;;;;;;-1.16;100.00;101491.53;4997314;28;20462;-81
2022/03/03 07:57:23;;;;;;;24.77;11.87;;;;;;;-1.09;100.00;101490.97;5057677;28;20044;-82
2022/03/03 07:59:58;;;;;;;30.63;13.33;;;;;;;-0.98;100.00;101499.16;5027335;28;20060;-82
2022/03/03 08:02:25;;;;;;;32.83;13.03;;;;;;;-1.14;100.00;101498.53;5013357;28;20050;-82
2022/03/03 08:26:06;;;;;;;29.10;14.03;;;;;;;-0.81;100.00;101500.69;5050879;28;20063;-80
2022/03/03 08:28:32;;;;;;;33.50;14.47;;;;;;;-0.63;100.00;101504.00;5034951;28;20048;-80
2022/03/03 08:31:04;;;;;;;38.70;15.07;;;;;;;-0.70;100.00;101496.81;5011887;28;20389;-80
2022/03/03 08:33:46;;;;;;;35.23;15.03;;;;;;;-0.54;100.00;101494.78;5014531;28;20496;-81
2022/03/03 08:36:47;;;;;;;38.17;15.40;;;;;;;-0.60;100.00;101490.25;5030926;28;20037;-80
2022/03/03 08:39:16;;;;;;;37.03;16.03;;;;;;;-0.43;100.00;101499.53;4993767;28;20045;-80
2022/03/03 08:41:44;;;;;;;45.50;16.70;;;;;;;-0.35;100.00;101492.03;4997633;28;20042;-80
2022/03/03 08:44:16;;;;;;;40.43;16.77;;;;;;;-0.36;100.00;101496.34;5014308;28;20063;-80
2022/03/03 08:46:43;;;;;;;37.73;16.57;;;;;;;-0.34;100.00;101504.19;4998665;28;20515;-80
2022/03/03 08:49:11;;;;;;;44.33;19.17;;;;;;;-0.26;100.00;101502.78;4997747;28;20049;-81
2022/03/03 08:51:38;;;;;;;41.70;19.37;;;;;;;-0.28;100.00;101507.03;5013649;28;20044;-79
2022/03/03 08:54:05;;;;;;;49.13;18.80;;;;;;;-0.43;100.00;101512.53;4997984;28;20041;-80
2022/03/03 08:56:32;;;;;;;41.27;17.57;;;;;;;-0.25;100.00;101517.56;5033514;28;20049;-80
2022/03/03 08:58:59;;;;;;;42.93;18.37;;;;;;;-0.20;100.00;101510.78;5018203;28;20044;-80
2022/03/03 09:01:26;;;;;;;47.83;19.20;;;;;;;-0.39;100.00;101505.75;5017033;28;20483;-80
2022/03/03 09:03:53;;;;;;;49.57;20.30;;;;;;;-0.41;100.00;101507.41;4989948;28;20046;-80
2022/03/03 09:06:20;;;;;;;47.97;19.10;;;;;;;-0.43;100.00;101509.94;5015560;28;20393;-80
2022/03/03 09:08:47;;;;;;;52.83;22.23;;;;;;;-0.26;100.00;101500.16;5033798;28;20047;-80
2022/03/03 09:11:15;;;;;;;45.87;19.30;;;;;;;-0.25;100.00;101501.97;5016138;28;20549;-80
2022/03/03 09:13:41;;;;;;;51.17;22.20;;;;;;;-0.13;100.00;101505.00;5043220;28;20054;-80
2022/03/03 09:16:13;;;;;;;53.40;20.23;;;;;;;-0.22;100.00;101502.06;5028095;28;20447;-81
2022/03/03 09:18:40;;;;;;;54.67;22.13;;;;;;;-0.09;100.00;101499.06;5017870;28;20045;-80
2022/03/03 09:21:06;;;;;;;55.80;22.93;;;;;;;0.01;100.00;101502.03;5001625;28;20496;-80
2022/03/03 09:23:33;;;;;;;48.70;21.17;;;;;;;-0.14;100.00;101494.56;5017526;28;20045;-80
2022/03/03 09:26:00;;;;;;;57.70;21.87;;;;;;;-0.03;100.00;101494.09;5015291;28;20491;-81
2022/03/03 09:28:27;;;;;;;62.57;23.13;;;;;;;0.01;100.00;101494.22;4998284;28;20045;-80
2022/03/03 09:30:56;;;;;;;57.77;22.57;;;;;;;0.02;100.00;101493.41;4980659;28;20088;-80
2022/03/03 09:33:23;;;;;;;52.70;24.27;;;;;;;-0.05;100.00;101485.38;4981353;28;20053;-80
2022/03/03 09:35:50;;;;;;;51.50;20.90;;;;;;;-0.06;100.00;101486.22;5008768;28;20049;-81
2022/03/03 09:38:17;;;;;;;46.20;19.60;;;;;;;-0.06;100.00;101496.59;5016684;28;20123;-80
2022/03/03 09:40:44;;;;;;;49.57;19.93;;;;;;;0.00;100.00;101493.34;5016746;28;20050;-80
2022/03/03 09:43:11;;;;;;;54.50;22.37;;;;;;;0.06;100.00;101480.56;5017246;28;20195;-80
2022/03/03 09:45:38;;;;;;;50.67;21.67;;;;;;;0.33;100.00;101480.63;4981767;28;20508;-81
2022/03/03 09:48:07;;;;;;;43.47;19.87;;;;;;;0.36;100.00;101487.66;4998664;28;20088;-80
2022/03/03 09:50:37;;;;;;;47.20;19.00;;;;;;;0.26;100.00;101499.47;4996619;28;20052;-81
2022/03/03 09:53:06;;;;;;;49.53;20.03;;;;;;;0.22;100.00;101495.84;5001325;28;20041;-81
2022/03/03 09:55:34;;;;;;;48.00;19.50;;;;;;;0.27;100.00;101499.50;5017416;28;20046;-81
2022/03/03 09:58:01;;;;;;;45.00;19.60;;;;;;;0.26;100.00;101500.34;5016514;28;20052;-80
2022/03/03 10:00:33;;;;;;;41.30;17.27;;;;;;;0.28;100.00;101495.19;5018383;28;20068;-80
2022/03/03 10:03:13;;;;;;;42.63;19.43;;;;;;;0.06;100.00;101503.06;5029737;28;20037;-80
2022/03/03 10:05:47;;;;;;;45.90;17.87;;;;;;;0.19;100.00;101507.88;4990330;28;20058;-81
2022/03/03 10:08:19;;;;;;;41.55;17.02;;;;;;;0.19;100.00;101505.28;4996956;28;20088;-81
2022/03/03 10:10:48;;;;;;;37.30;16.33;;;;;;;0.24;100.00;101507.19;4995903;28;20050;-81
2022/03/03 10:13:17;;;;;;;35.40;16.63;;;;;;;0.42;100.00;101512.16;5012441;28;20052;-80
2022/03/03 10:15:45;;;;;;;47.03;17.37;;;;;;;0.44;100.00;101502.69;5029754;28;20484;-81
2022/03/03 10:18:16;;;;;;;36.23;14.77;;;;;;;0.52;100.00;101496.03;5033579;28;20124;-81
2022/03/03 10:20:51;;;;;;;36.77;14.67;;;;;;;0.57;100.00;101503.97;5016177;28;20052;-81
2022/03/03 10:23:39;;;;;;;34.83;14.47;;;;;;;0.47;100.00;101514.88;4996840;28;20042;-82
2022/03/03 10:26:07;;;;;;;33.47;14.27;;;;;;;0.59;100.00;101506.59;5010559;28;20049;-82
2022/03/03 10:28:35;;;;;;;32.87;13.23;;;;;;;0.44;100.00;101507.88;5017478;28;20068;-82
2022/03/03 10:31:06;;;;;;;34.17;15.10;;;;;;;0.62;100.00;101511.94;4999911;28;20045;-81
2022/03/03 10:33:38;;;;;;;35.53;13.90;;;;;;;0.48;100.00;101501.94;5015815;28;20050;-80
2022/03/03 10:36:07;;;;;;;25.33;13.30;;;;;;;0.44;100.00;101525.19;4999461;28;20075;-81
2022/03/03 10:38:47;;;;;;;31.43;12.07;;;;;;;0.43;100.00;101524.31;5032335;28;20038;-81
2022/03/03 10:41:39;;;;;;;27.80;13.60;;;;;;;0.45;100.00;101520.03;5015208;28;20107;-81
2022/03/03 10:44:11;;;;;;;30.60;14.33;;;;;;;0.39;100.00;101522.44;5031267;28;20048;-82
2022/03/03 10:46:59;;;;;;;162.33;84.97;;;;;;;0.59;100.00;101514.41;5015743;28;20134;-81
2022/03/03 10:49:26;;;;;;;29.53;13.03;;;;;;;0.58;100.00;101523.94;5015640;28;20110;-80
2022/03/03 10:51:52;;;;;;;28.20;11.93;;;;;;;0.50;100.00;101522.78;5014510;28;20040;-81
2022/03/03 10:54:20;;;;;;;30.93;12.80;;;;;;;0.50;100.00;101507.19;5015128;28;20053;-81
2022/03/03 10:57:05;;;;;;;33.00;14.03;;;;;;;0.67;100.00;101507.75;5016859;28;20076;-81
2022/03/03 10:59:33;;;;;;;26.60;12.17;;;;;;;0.56;100.00;101510.88;5031187;28;20046;-81
2022/03/03 11:02:01;;;;;;;28.73;11.93;;;;;;;0.62;100.00;101511.94;5013398;28;20037;-81
2022/03/03 11:04:27;;;;;;;25.17;10.53;;;;;;;0.85;100.00;101500.56;4995461;28;20141;-81
2022/03/03 11:06:54;;;;;;;28.57;11.30;;;;;;;0.81;100.00;101494.38;5003767;28;20048;-81
2022/03/03 11:09:22;;;;;;;24.80;11.03;;;;;;;0.95;100.00;101487.03;5015086;28;20496;-81
2022/03/03 11:11:48;;;;;;;28.90;11.20;;;;;;;1.00;100.00;101498.44;4996863;28;20519;-80
2022/03/03 11:14:15;;;;;;;29.73;11.90;;;;;;;1.02;100.00;101491.59;5035801;28;20048;-81
2022/03/03 11:16:43;;;;;;;22.83;10.43;;;;;;;0.82;100.00;101490.94;5027047;28;20116;-81
2022/03/03 11:19:16;;;;;;;;;;;;;;;0.97;100.00;101490.53;5005735;28;20053;-81
2022/03/03 11:21:44;;;;;;;24.53;11.30;;;;;;;0.78;100.00;101498.59;5055127;28;20368;-80
2022/03/03 11:24:31;;;;;;;21.50;9.20;;;;;;;0.88;100.00;101485.06;5009210;28;20034;-81
2022/03/03 11:27:00;;;;;;;27.33;11.43;;;;;;;0.97;100.00;101497.47;5032258;28;20416;-81
2022/03/03 11:29:27;;;;;;;24.47;11.10;;;;;;;1.08;100.00;101499.56;5014909;28;20493;-81
2022/03/03 11:32:03;;;;;;;25.33;11.10;;;;;;;1.03;100.00;101493.34;5014003;28;20049;-81
2022/03/03 11:34:36;;;;;;;24.80;9.73;;;;;;;1.07;100.00;101490.00;5015789;28;20041;-80
2022/03/03 11:37:22;;;;;;;25.00;10.80;;;;;;;1.07;100.00;101499.53;5031866;28;20056;-81